Friedman Memorial Airport

Airport
ICAO code: 
KSUN
Summary
ICAO Region: 
NAM
Territory: 
Location: 
Hailey, Idaho,
Coordinates: 
Aerial View: 
43° 30' 22.88" N, 114° 18' 2.234" W
Airport CFIT: 
Altimeter Temperature Error Correction
Airport RE: 
Hot and High Operations
Metar
Observation
KSUN 020955Z AUTO 31008KT 10SM CLR 00/00 A3029 RMK AO2
Station
Hailey, Friedman Memorial Airport
Date/Time
2021-12-02 09:55:00
Wind direction
310°
Wind speed
08 kts
Lowest cloud amount
n/a
Temperature
0°C
Dew point
0°C
Humidity
100%
Weather condition
n/a

Description

Friedman Memorial Airport is a city-owned public-use airport located 2 km southeast of the central business district of Hailey, a city in Blaine County, Idaho.

Climatology

Cold Semi-arid climate (Köppen climate classification BSk). - Hot, sometimes extremely hot summers and cold, sometimes very cold winters. Some snowfall during the winter. Areas featuring cold semi-arid climates are sometimes subject to major temperature swings during a 24 hour period.

Runways

Designator Length Width Surface Rops
13/31 2119 30 ASP Yes/Yes
Airport map: 
Aerial View: 

SKYbrary Partners:

Safety knowledge contributed by: